createdAt,value
2022-12-29T00:01:42.564Z,8.67
2022-12-29T00:06:44.463Z,7.40
2022-12-29T00:11:51.200Z,7.03
2022-12-29T00:16:55.556Z,5.20
2022-12-29T00:22:17.025Z,6.50
2022-12-29T00:27:41.568Z,6.60
2022-12-29T00:33:02.048Z,5.17
2022-12-29T00:38:25.074Z,4.77
2022-12-29T00:43:46.257Z,5.53
2022-12-29T00:49:08.541Z,5.00
2022-12-29T00:54:12.879Z,4.63
2022-12-29T00:59:16.177Z,4.57
2022-12-29T01:04:27.868Z,4.47
2022-12-29T01:09:50.826Z,4.37
2022-12-29T01:14:52.629Z,5.77
2022-12-29T01:20:00.207Z,6.13
2022-12-29T01:25:02.215Z,6.27
2022-12-29T01:30:07.019Z,6.43
2022-12-29T01:35:13.623Z,6.07
2022-12-29T01:40:18.458Z,4.93
2022-12-29T01:45:22.795Z,5.47
2022-12-29T01:50:31.160Z,4.63
2022-12-29T01:55:37.205Z,5.67
2022-12-29T02:00:41.315Z,5.10
2022-12-29T02:06:04.001Z,5.00
2022-12-29T02:11:17.537Z,4.60
2022-12-29T02:16:22.190Z,5.23
2022-12-29T02:22:01.460Z,4.60
2022-12-29T02:27:18.549Z,4.80
2022-12-29T02:33:08.968Z,4.60
2022-12-29T02:38:22.995Z,3.70
2022-12-29T02:43:28.747Z,3.17
2022-12-29T02:48:30.761Z,4.00
2022-12-29T02:53:54.544Z,3.10
2022-12-29T02:58:56.264Z,3.10
2022-12-29T03:04:18.825Z,2.33
2022-12-29T03:09:56.692Z,2.70
2022-12-29T03:15:27.857Z,2.80
2022-12-29T03:20:42.357Z,2.57
2022-12-29T03:25:50.955Z,2.40
2022-12-29T03:30:58.668Z,2.60
2022-12-29T03:36:05.086Z,2.00
2022-12-29T03:41:14.574Z,2.00
2022-12-29T03:46:16.609Z,2.17
2022-12-29T03:51:18.769Z,2.10
2022-12-29T03:56:23.487Z,2.17
2022-12-29T04:01:28.660Z,2.20
2022-12-29T04:06:30.550Z,1.37
2022-12-29T04:11:39.239Z,1.50
2022-12-29T04:16:44.056Z,1.80
2022-12-29T04:21:49.031Z,1.47
2022-12-29T04:26:50.997Z,1.30
2022-12-29T04:32:04.156Z,0.83
2022-12-29T04:37:10.613Z,1.07
2022-12-29T04:42:15.309Z,1.10
2022-12-29T04:47:21.504Z,0.90
2022-12-29T04:52:57.807Z,1.60
2022-12-29T04:57:59.599Z,1.37
2022-12-29T05:03:04.202Z,1.03
2022-12-29T05:08:10.942Z,0.93
2022-12-29T05:13:12.773Z,1.33
2022-12-29T05:18:20.275Z,1.20
2022-12-29T05:23:22.290Z,1.13
2022-12-29T05:28:34.509Z,1.20
2022-12-29T05:33:42.833Z,0.80
2022-12-29T05:38:45.606Z,0.90
2022-12-29T05:43:54.850Z,0.83
2022-12-29T05:49:02.533Z,1.03
2022-12-29T05:54:22.387Z,1.17
2022-12-29T05:59:29.444Z,0.90
2022-12-29T06:04:31.629Z,0.70
2022-12-29T06:09:34.935Z,0.80
2022-12-29T06:14:38.611Z,0.70
2022-12-29T06:19:46.135Z,1.10
2022-12-29T06:24:48.912Z,1.40
2022-12-29T06:29:50.892Z,0.83
2022-12-29T06:34:52.766Z,1.10
2022-12-29T06:39:56.948Z,1.37
2022-12-29T06:45:03.587Z,1.60
2022-12-29T06:50:09.305Z,1.50
2022-12-29T06:55:11.069Z,1.47
2022-12-29T07:00:22.333Z,1.63
2022-12-29T07:05:28.677Z,1.50
2022-12-29T07:10:30.583Z,1.80
2022-12-29T07:15:34.576Z,1.67
2022-12-29T07:20:41.183Z,1.83
2022-12-29T07:25:45.014Z,1.47
2022-12-29T07:30:47.206Z,1.67
2022-12-29T07:35:49.148Z,1.97
2022-12-29T07:40:57.925Z,1.70
2022-12-29T07:46:14.586Z,1.30
2022-12-29T07:51:33.349Z,2.37
2022-12-29T07:56:37.501Z,2.03
2022-12-29T08:01:41.440Z,1.73
2022-12-29T08:06:59.299Z,1.20
2022-12-29T08:12:01.274Z,1.97
2022-12-29T08:17:04.141Z,1.77
2022-12-29T08:22:06.400Z,1.70
2022-12-29T08:27:17.979Z,1.40
2022-12-29T08:32:22.889Z,2.47
2022-12-29T08:37:30.687Z,2.40
2022-12-29T08:42:33.257Z,2.40
2022-12-29T08:47:34.942Z,1.63
2022-12-29T08:52:36.790Z,2.20
2022-12-29T08:57:38.706Z,1.80
2022-12-29T09:02:49.940Z,2.13
2022-12-29T09:07:56.137Z,1.47
2022-12-29T09:12:57.945Z,1.90
2022-12-29T09:17:59.706Z,2.30
2022-12-29T09:23:01.565Z,1.83
2022-12-29T09:28:08.653Z,1.50
2022-12-29T09:33:10.461Z,2.30
2022-12-29T09:38:16.853Z,2.20
2022-12-29T09:43:33.371Z,1.80
2022-12-29T09:48:39.625Z,2.63
2022-12-29T09:53:43.014Z,2.50
2022-12-29T09:59:08.426Z,2.97
2022-12-29T10:04:10.174Z,2.67
2022-12-29T10:09:23.454Z,2.50
2022-12-29T10:14:47.590Z,2.80
2022-12-29T10:20:06.675Z,2.40
2022-12-29T10:25:17.470Z,1.90
2022-12-29T10:30:21.393Z,1.97
2022-12-29T10:35:34.010Z,1.47
2022-12-29T10:40:47.842Z,1.63
2022-12-29T10:45:50.025Z,2.57
2022-12-29T10:51:02.043Z,2.10
2022-12-29T10:56:10.482Z,2.17
2022-12-29T11:01:17.217Z,2.80
2022-12-29T11:06:26.886Z,1.90
2022-12-29T11:11:35.398Z,1.90
2022-12-29T11:16:39.600Z,2.27
2022-12-29T11:21:46.212Z,2.30
2022-12-29T11:26:58.544Z,1.93
2022-12-29T11:32:22.639Z,1.17
2022-12-29T11:37:43.602Z,2.17
2022-12-29T11:42:54.954Z,2.00
2022-12-29T11:48:13.895Z,1.73
2022-12-29T11:53:26.151Z,1.90
2022-12-29T11:58:35.712Z,1.90
2022-12-29T12:03:41.605Z,1.87
2022-12-29T12:08:48.187Z,1.90
2022-12-29T12:13:59.371Z,2.30
2022-12-29T12:19:34.010Z,1.80
2022-12-29T12:24:46.370Z,2.40
2022-12-29T12:30:15.212Z,2.83
2022-12-29T12:35:40.179Z,1.90
2022-12-29T12:40:50.173Z,2.60
2022-12-29T12:46:13.500Z,2.20
2022-12-29T12:51:39.703Z,2.70
2022-12-29T12:57:15.001Z,2.53
2022-12-29T13:02:23.303Z,2.17
2022-12-29T13:07:37.335Z,3.03
2022-12-29T13:12:44.803Z,1.47
2022-12-29T13:18:05.145Z,3.07
2022-12-29T13:23:34.858Z,2.73
2022-12-29T13:28:54.870Z,3.77
2022-12-29T13:33:58.320Z,2.37
2022-12-29T13:39:10.441Z,3.43
2022-12-29T13:44:36.590Z,2.47
2022-12-29T13:49:45.571Z,2.67
2022-12-29T13:55:10.122Z,3.43
2022-12-29T14:00:20.475Z,3.00
2022-12-29T14:05:22.191Z,1.53
2022-12-29T14:10:36.500Z,2.37
2022-12-29T14:15:44.431Z,3.10
2022-12-29T14:21:01.803Z,3.20
2022-12-29T14:26:05.702Z,2.63
2022-12-29T14:31:18.163Z,2.13
2022-12-29T14:36:21.825Z,2.73
2022-12-29T14:41:42.473Z,2.20
2022-12-29T14:46:48.900Z,2.80
2022-12-29T14:51:53.604Z,2.90
2022-12-29T14:56:59.851Z,2.60
2022-12-29T15:02:16.633Z,2.63
2022-12-29T15:07:20.143Z,2.70
2022-12-29T15:12:41.930Z,2.90
2022-12-29T15:17:44.317Z,2.53
2022-12-29T15:22:53.739Z,2.33
2022-12-29T15:28:03.830Z,3.10
2022-12-29T15:33:19.638Z,3.20
2022-12-29T15:38:34.539Z,2.67
2022-12-29T15:44:07.063Z,2.90
2022-12-29T15:49:20.742Z,3.00
2022-12-29T15:54:24.152Z,2.60
2022-12-29T15:59:34.499Z,3.10
2022-12-29T16:04:54.078Z,3.27
2022-12-29T16:10:03.061Z,3.70
2022-12-29T16:15:07.604Z,3.07
2022-12-29T16:20:21.405Z,3.90
2022-12-29T16:25:25.764Z,3.23
2022-12-29T16:30:35.585Z,3.70
2022-12-29T16:35:44.296Z,3.10
2022-12-29T16:40:53.915Z,3.47
2022-12-29T16:46:19.233Z,4.07
2022-12-29T16:51:44.233Z,3.50
2022-12-29T16:56:49.097Z,3.40
2022-12-29T17:01:53.402Z,2.57
2022-12-29T17:06:55.304Z,2.67
2022-12-29T17:12:10.715Z,2.17
2022-12-29T17:17:22.468Z,2.70
2022-12-29T17:22:28.303Z,2.97
2022-12-29T17:27:40.332Z,1.87
2022-12-29T17:32:52.174Z,3.60
2022-12-29T17:37:54.087Z,3.13
2022-12-29T17:42:57.572Z,2.80
2022-12-29T17:48:02.701Z,2.97
2022-12-29T17:53:11.634Z,2.80
2022-12-29T17:58:28.718Z,3.60
2022-12-29T18:03:34.587Z,2.00
2022-12-29T18:08:38.812Z,2.50
2022-12-29T18:13:46.388Z,1.27
2022-12-29T18:18:48.567Z,1.33
2022-12-29T18:23:52.681Z,1.90
2022-12-29T18:28:59.342Z,1.50
2022-12-29T18:34:11.719Z,1.40
2022-12-29T18:39:13.532Z,1.63
2022-12-29T18:44:16.718Z,1.80
2022-12-29T18:49:18.608Z,2.30
2022-12-29T18:54:31.376Z,2.33
2022-12-29T18:59:41.090Z,3.23
2022-12-29T19:04:46.898Z,2.97
2022-12-29T19:09:54.332Z,3.77
2022-12-29T19:14:58.375Z,3.00
2022-12-29T19:20:04.108Z,2.67
2022-12-29T19:25:10.894Z,2.80
2022-12-29T19:30:15.120Z,2.60
2022-12-29T19:35:16.920Z,3.60
2022-12-29T19:40:23.111Z,3.40
2022-12-29T19:45:29.658Z,3.47
2022-12-29T19:50:32.471Z,3.20
2022-12-29T19:55:43.593Z,3.60
2022-12-29T20:00:45.717Z,4.07
2022-12-29T20:05:54.561Z,3.90
2022-12-29T20:11:05.177Z,3.73
2022-12-29T20:16:12.143Z,3.97
2022-12-29T20:21:18.884Z,3.00
2022-12-29T20:26:25.815Z,5.00
2022-12-29T20:31:30.941Z,4.07
2022-12-29T20:36:41.462Z,3.63
2022-12-29T20:41:45.953Z,3.83
2022-12-29T20:46:51.072Z,4.50
2022-12-29T20:52:06.254Z,3.63
2022-12-29T20:57:11.007Z,4.43
2022-12-29T21:02:21.446Z,3.60
2022-12-29T21:07:28.061Z,5.50
2022-12-29T21:12:29.768Z,4.67
2022-12-29T21:17:33.972Z,3.53
2022-12-29T21:22:40.527Z,3.00
2022-12-29T21:27:45.093Z,5.07
2022-12-29T21:32:51.655Z,3.87
2022-12-29T21:37:55.467Z,4.13
2022-12-29T21:43:03.466Z,5.23
2022-12-29T21:48:21.713Z,5.03
2022-12-29T21:53:37.556Z,4.20
2022-12-29T21:58:59.355Z,4.30
2022-12-29T22:04:20.030Z,5.23
2022-12-29T22:09:43.757Z,3.70
2022-12-29T22:14:50.502Z,3.93
2022-12-29T22:19:54.533Z,2.87
2022-12-29T22:25:02.914Z,4.17
2022-12-29T22:30:05.569Z,3.93
2022-12-29T22:35:08.291Z,4.00
2022-12-29T22:40:12.883Z,4.23
2022-12-29T22:45:15.000Z,3.40
2022-12-29T22:50:21.185Z,4.43
2022-12-29T22:55:28.056Z,5.07
2022-12-29T23:00:35.137Z,6.20
2022-12-29T23:05:36.846Z,4.80
2022-12-29T23:10:40.803Z,7.60
2022-12-29T23:15:45.041Z,4.30
2022-12-29T23:20:51.781Z,3.90
2022-12-29T23:25:53.456Z,3.77
2022-12-29T23:31:01.288Z,3.90
2022-12-29T23:36:03.800Z,3.63
2022-12-29T23:41:08.260Z,4.23
2022-12-29T23:46:18.167Z,4.13
2022-12-29T23:51:20.008Z,3.30
2022-12-29T23:56:25.177Z,3.60
